createdAt,value
2023-09-14T00:01:24.283Z,55.91
2023-09-14T00:03:52.631Z,56.06
2023-09-14T00:06:19.472Z,55.39
2023-09-14T00:08:46.385Z,55.43
2023-09-14T00:11:13.252Z,55.21
2023-09-14T00:13:39.829Z,55.19
2023-09-14T00:16:06.497Z,56.50
2023-09-14T00:18:33.208Z,56.62
2023-09-14T00:20:59.861Z,57.38
2023-09-14T00:23:26.467Z,57.17
2023-09-14T00:25:53.089Z,57.26
2023-09-14T00:28:19.889Z,56.77
2023-09-14T00:30:46.751Z,56.13
2023-09-14T00:33:13.310Z,56.10
2023-09-14T00:35:39.853Z,56.59
2023-09-14T00:38:06.421Z,57.24
2023-09-14T00:40:32.929Z,57.33
2023-09-14T00:42:59.393Z,57.51
2023-09-14T00:45:25.930Z,56.80
2023-09-14T00:47:58.301Z,56.84
2023-09-14T00:50:25.940Z,57.40
2023-09-14T00:52:55.848Z,57.32
2023-09-14T00:55:23.279Z,57.11
2023-09-14T00:57:50.205Z,56.53
2023-09-14T01:00:17.667Z,57.55
2023-09-14T01:02:44.852Z,57.66
2023-09-14T01:05:14.158Z,57.73
2023-09-14T01:07:41.391Z,57.29
2023-09-14T01:10:08.585Z,58.65
2023-09-14T01:12:35.249Z,57.35
2023-09-14T01:15:20.684Z,57.43
2023-09-14T01:18:00.527Z,56.67
2023-09-14T01:20:37.060Z,56.72
2023-09-14T01:23:06.472Z,57.31
2023-09-14T01:25:40.744Z,57.85
2023-09-14T01:28:08.680Z,58.07
2023-09-14T01:30:35.444Z,57.65
2023-09-14T01:33:02.156Z,57.87
2023-09-14T01:35:29.132Z,57.78
2023-09-14T01:37:56.551Z,57.52
2023-09-14T01:40:24.457Z,57.75
2023-09-14T01:42:51.660Z,57.13
2023-09-14T01:45:18.446Z,56.65
2023-09-14T01:47:47.803Z,56.31
2023-09-14T01:50:15.244Z,56.95
2023-09-14T01:52:41.776Z,55.93
2023-09-14T01:55:08.533Z,56.81
2023-09-14T01:57:35.201Z,56.29
2023-09-14T02:00:01.806Z,56.75
2023-09-14T02:02:28.411Z,56.72
2023-09-14T02:04:54.971Z,57.61
2023-09-14T02:07:21.507Z,57.66
2023-09-14T02:09:48.950Z,57.26
2023-09-14T02:12:15.677Z,57.71
2023-09-14T02:14:42.131Z,57.17
2023-09-14T02:17:08.754Z,58.08
2023-09-14T02:19:35.202Z,58.24
2023-09-14T02:22:01.827Z,57.84
2023-09-14T02:24:28.966Z,57.48
2023-09-14T02:26:55.623Z,58.13
2023-09-14T02:29:22.373Z,56.09
2023-09-14T02:31:48.970Z,57.22
2023-09-14T02:34:15.739Z,55.38
2023-09-14T02:36:42.325Z,56.66
2023-09-14T02:39:08.850Z,58.51
2023-09-14T02:41:35.392Z,57.24
2023-09-14T02:44:01.911Z,56.43
2023-09-14T02:46:28.970Z,58.41
2023-09-14T02:48:55.569Z,57.87
2023-09-14T02:51:22.248Z,58.92
2023-09-14T02:53:48.809Z,58.48
2023-09-14T02:56:15.483Z,58.44
2023-09-14T02:58:41.977Z,57.98
2023-09-14T03:01:12.392Z,58.41
2023-09-14T03:03:40.579Z,59.04
2023-09-14T03:06:07.289Z,59.12
2023-09-14T03:08:34.268Z,58.96
2023-09-14T03:11:01.230Z,58.13
2023-09-14T03:13:28.568Z,58.79
2023-09-14T03:15:59.188Z,59.04
2023-09-14T03:18:26.957Z,58.99
2023-09-14T03:20:55.033Z,59.09
2023-09-14T03:23:21.733Z,59.28
2023-09-14T03:25:52.465Z,59.17
2023-09-14T03:28:19.612Z,58.30
2023-09-14T03:30:47.573Z,58.92
2023-09-14T03:33:14.204Z,59.58
2023-09-14T03:35:41.945Z,59.18
2023-09-14T03:38:08.695Z,59.30
2023-09-14T03:40:35.210Z,58.97
2023-09-14T03:43:03.409Z,59.31
2023-09-14T03:45:29.994Z,59.78
2023-09-14T03:47:56.823Z,59.10
2023-09-14T03:50:23.469Z,58.85
2023-09-14T03:52:50.666Z,59.05
2023-09-14T03:55:17.172Z,59.52
2023-09-14T04:29:25.634Z,63.72
2023-09-14T04:31:52.565Z,62.91
2023-09-14T04:34:19.434Z,62.81
2023-09-14T04:36:46.245Z,63.33
2023-09-14T04:39:13.878Z,60.52
2023-09-14T04:41:40.735Z,60.32
2023-09-14T04:44:07.461Z,60.36
2023-09-14T04:46:34.228Z,59.81
2023-09-14T04:49:01.478Z,59.83
2023-09-14T04:51:28.383Z,58.87
2023-09-14T04:53:55.006Z,59.68
2023-09-14T04:56:21.817Z,59.85
2023-09-14T04:58:48.966Z,59.14
2023-09-14T05:01:16.823Z,59.85
2023-09-14T05:03:43.585Z,59.11
2023-09-14T05:06:10.383Z,58.26
2023-09-14T05:08:37.179Z,58.86
2023-09-14T05:11:04.577Z,59.25
2023-09-14T05:13:31.611Z,58.79
2023-09-14T05:15:58.671Z,58.72
2023-09-14T05:18:27.533Z,59.32
2023-09-14T05:20:54.389Z,58.09
2023-09-14T05:23:21.171Z,59.21
2023-09-14T05:25:48.562Z,59.31
2023-09-14T05:28:18.387Z,58.52
2023-09-14T05:30:45.308Z,58.76
2023-09-14T05:33:13.751Z,58.69
2023-09-14T05:35:41.228Z,57.64
2023-09-14T05:38:08.000Z,59.39
2023-09-14T05:40:35.298Z,58.46
2023-09-14T05:43:01.976Z,58.43
2023-09-14T05:45:29.460Z,58.18
2023-09-14T05:47:57.509Z,57.73
2023-09-14T05:50:24.443Z,58.25
2023-09-14T05:52:51.596Z,59.44
2023-09-14T05:55:19.343Z,59.17
2023-09-14T05:57:46.571Z,59.18
2023-09-14T06:00:14.546Z,59.67
2023-09-14T06:02:48.139Z,60.12
2023-09-14T06:05:29.076Z,59.75
2023-09-14T06:07:56.117Z,59.15
2023-09-14T06:10:24.886Z,57.32
2023-09-14T06:12:53.022Z,56.94
2023-09-14T06:15:19.862Z,58.70
2023-09-14T06:17:48.137Z,58.68
2023-09-14T06:20:15.066Z,59.00
2023-09-14T06:22:41.864Z,58.96
2023-09-14T06:25:08.918Z,57.63
2023-09-14T06:27:36.140Z,57.08
2023-09-14T06:30:07.292Z,57.23
2023-09-14T06:32:34.272Z,55.73
2023-09-14T06:35:00.956Z,55.49
2023-09-14T06:37:28.411Z,51.34
2023-09-14T06:39:55.810Z,55.50
2023-09-14T06:42:24.073Z,56.25
2023-09-14T06:44:51.373Z,56.97
2023-09-14T06:47:18.422Z,56.59
2023-09-14T06:49:45.174Z,54.10
2023-09-14T06:52:29.951Z,54.26
2023-09-14T06:55:00.310Z,54.62
2023-09-14T06:57:30.263Z,54.88
2023-09-14T07:00:02.140Z,55.03
2023-09-14T07:02:31.228Z,56.21
2023-09-14T07:05:08.362Z,56.00
2023-09-14T07:07:50.378Z,54.51
2023-09-14T07:10:17.023Z,55.34
2023-09-14T07:12:43.804Z,54.31
2023-09-14T07:15:10.885Z,50.70
2023-09-14T07:17:37.546Z,55.02
2023-09-14T07:20:06.142Z,54.11
2023-09-14T07:22:32.759Z,53.63
2023-09-14T07:24:59.469Z,55.62
2023-09-14T07:27:26.167Z,54.91
2023-09-14T07:29:52.804Z,52.84
2023-09-14T07:32:20.601Z,52.58
2023-09-14T07:34:47.273Z,54.04
2023-09-14T07:37:14.473Z,54.70
2023-09-14T07:39:41.348Z,51.77
2023-09-14T07:42:08.017Z,53.97
2023-09-14T07:44:35.018Z,55.44
2023-09-14T07:47:01.820Z,52.80
2023-09-14T07:49:28.734Z,53.84
2023-09-14T07:51:55.401Z,52.79
2023-09-14T07:54:22.273Z,52.60
2023-09-14T07:56:49.001Z,52.82
2023-09-14T07:59:15.686Z,53.46
2023-09-14T08:01:42.292Z,51.23
2023-09-14T08:04:09.067Z,53.32
2023-09-14T08:06:35.812Z,51.83
2023-09-14T08:09:03.518Z,53.53
2023-09-14T08:11:30.138Z,54.66
2023-09-14T08:13:56.799Z,54.72
2023-09-14T08:16:25.051Z,54.10
2023-09-14T08:18:53.473Z,53.77
2023-09-14T08:21:20.156Z,51.57
2023-09-14T08:23:46.995Z,49.38
2023-09-14T08:26:13.723Z,52.69
2023-09-14T08:28:40.385Z,51.97
2023-09-14T08:31:07.197Z,51.63
2023-09-14T08:33:33.951Z,51.69
2023-09-14T08:36:00.617Z,52.13
2023-09-14T08:38:27.966Z,52.85
2023-09-14T08:40:57.342Z,51.75
2023-09-14T08:43:25.406Z,51.48
2023-09-14T08:45:53.904Z,53.06
2023-09-14T08:48:27.462Z,53.32
2023-09-14T08:50:55.434Z,50.59
2023-09-14T08:53:24.307Z,51.85
2023-09-14T08:55:52.284Z,54.93
2023-09-14T08:58:20.782Z,52.59
2023-09-14T09:00:49.321Z,53.48
2023-09-14T09:03:16.177Z,50.60
2023-09-14T09:05:44.210Z,52.22
2023-09-14T09:08:11.370Z,52.83
2023-09-14T09:10:41.708Z,53.33
2023-09-14T09:13:08.433Z,54.21
2023-09-14T09:15:40.520Z,54.20
2023-09-14T09:18:11.849Z,52.56
2023-09-14T09:20:46.837Z,51.45
2023-09-14T09:23:16.910Z,52.13
2023-09-14T09:25:53.218Z,51.55
2023-09-14T09:28:20.595Z,52.27
2023-09-14T09:30:54.287Z,50.79
2023-09-14T09:33:37.279Z,51.84
2023-09-14T09:36:16.107Z,52.20
2023-09-14T09:38:43.106Z,53.31
2023-09-14T09:41:11.689Z,52.08
2023-09-14T09:43:39.364Z,49.81
2023-09-14T09:46:15.485Z,51.48
2023-09-14T09:48:43.061Z,52.22
2023-09-14T09:51:10.689Z,51.67
2023-09-14T09:53:37.475Z,52.00
2023-09-14T09:56:18.974Z,50.23
2023-09-14T09:58:48.767Z,50.53
2023-09-14T10:01:23.582Z,50.91
2023-09-14T10:03:57.482Z,51.65
2023-09-14T10:06:24.428Z,50.42
2023-09-14T10:08:58.161Z,49.66
2023-09-14T10:11:26.080Z,50.91
2023-09-14T10:13:53.517Z,52.50
2023-09-14T10:16:26.802Z,53.07
2023-09-14T10:19:11.860Z,51.49
2023-09-14T10:21:51.011Z,53.84
2023-09-14T10:24:25.615Z,51.63
2023-09-14T10:26:53.421Z,52.13
2023-09-14T10:29:22.433Z,51.93
2023-09-14T10:31:51.846Z,50.73
2023-09-14T10:34:18.715Z,51.32
2023-09-14T10:36:47.100Z,52.44
2023-09-14T10:39:13.934Z,52.96
2023-09-14T10:41:40.696Z,50.86
2023-09-14T10:44:08.307Z,52.66
2023-09-14T10:46:44.841Z,52.28
2023-09-14T10:49:13.887Z,51.63
2023-09-14T10:51:42.441Z,53.26
2023-09-14T10:54:12.209Z,53.52
2023-09-14T10:56:38.916Z,49.60
2023-09-14T10:59:10.368Z,51.67
2023-09-14T11:01:54.793Z,53.06
2023-09-14T11:04:23.292Z,52.44
2023-09-14T11:06:53.925Z,51.55
2023-09-14T11:09:22.947Z,52.90
2023-09-14T11:11:55.021Z,52.38
2023-09-14T11:14:27.009Z,52.06
2023-09-14T11:16:57.315Z,52.30
2023-09-14T11:19:43.040Z,50.57
2023-09-14T11:22:19.030Z,50.94
2023-09-14T11:24:47.339Z,51.38
2023-09-14T11:27:22.684Z,51.80
2023-09-14T11:29:52.500Z,51.76
2023-09-14T11:32:25.785Z,52.05
2023-09-14T11:34:58.562Z,52.35
2023-09-14T11:37:34.264Z,49.92
2023-09-14T11:40:10.593Z,51.30
2023-09-14T11:46:04.861Z,51.33
2023-09-14T11:51:07.671Z,52.22
2023-09-14T11:53:36.463Z,52.63
2023-09-14T11:56:03.168Z,52.83
2023-09-14T11:58:33.432Z,51.59
2023-09-14T12:01:00.282Z,52.04
2023-09-14T12:03:28.576Z,53.48
2023-09-14T12:05:59.604Z,53.73
2023-09-14T12:08:27.927Z,52.75
2023-09-14T12:10:56.581Z,52.57
2023-09-14T12:13:23.738Z,53.59
2023-09-14T12:16:03.158Z,52.83
2023-09-14T12:18:41.392Z,53.54
2023-09-14T12:21:10.369Z,53.83
2023-09-14T12:23:39.744Z,52.17
2023-09-14T12:26:09.461Z,53.72
2023-09-14T12:28:36.606Z,53.97
2023-09-14T12:31:04.775Z,52.54
2023-09-14T12:33:32.313Z,51.68
2023-09-14T12:35:59.296Z,52.63
2023-09-14T12:38:33.299Z,52.38
2023-09-14T12:41:07.680Z,52.71
2023-09-14T12:43:35.211Z,52.26
2023-09-14T12:46:03.119Z,51.39
2023-09-14T12:48:30.187Z,50.50
2023-09-14T12:51:00.003Z,51.43
2023-09-14T12:53:29.465Z,52.81
2023-09-14T12:55:56.144Z,52.41
2023-09-14T12:58:24.916Z,52.66
2023-09-14T13:00:53.931Z,54.29
2023-09-14T13:03:21.139Z,53.87
2023-09-14T13:05:48.584Z,54.13
2023-09-14T13:08:15.286Z,53.42
2023-09-14T13:10:42.249Z,55.11
2023-09-14T13:13:11.126Z,53.54
2023-09-14T13:15:43.053Z,53.97
2023-09-14T13:18:14.414Z,54.63
2023-09-14T13:20:46.974Z,54.77
2023-09-14T13:23:13.789Z,54.76
2023-09-14T13:25:40.652Z,54.55
2023-09-14T13:28:07.293Z,54.91
2023-09-14T13:30:35.373Z,54.22
2023-09-14T13:33:02.731Z,54.26
2023-09-14T13:35:30.359Z,55.71
2023-09-14T13:38:00.992Z,55.01
2023-09-14T13:40:29.311Z,55.48
2023-09-14T13:43:00.485Z,54.51
2023-09-14T13:45:30.309Z,55.33
2023-09-14T13:47:58.091Z,55.35
2023-09-14T13:50:24.905Z,56.03
2023-09-14T13:52:52.384Z,53.94
2023-09-14T13:55:19.271Z,54.66
2023-09-14T13:57:47.633Z,55.35
2023-09-14T14:00:16.902Z,54.54
2023-09-14T14:02:47.007Z,54.73
2023-09-14T14:05:14.019Z,54.42
2023-09-14T14:07:40.628Z,54.70
2023-09-14T14:10:07.916Z,53.84
2023-09-14T14:12:34.842Z,53.86
2023-09-14T14:15:01.817Z,53.50
2023-09-14T14:17:28.852Z,52.69
2023-09-14T14:19:55.874Z,53.69
2023-09-14T14:22:22.894Z,54.70
2023-09-14T14:24:49.683Z,53.87
2023-09-14T14:27:16.890Z,55.61
2023-09-14T14:29:44.174Z,54.97
2023-09-14T14:32:11.040Z,55.85
2023-09-14T14:34:37.974Z,54.66
2023-09-14T14:37:05.517Z,55.11
2023-09-14T14:39:32.181Z,55.66
2023-09-14T14:41:58.996Z,55.84
2023-09-14T14:44:26.432Z,55.96
2023-09-14T14:46:53.510Z,56.74
2023-09-14T14:49:20.830Z,56.16
2023-09-14T14:51:47.889Z,56.97
2023-09-14T14:54:14.832Z,55.32
2023-09-14T14:56:41.755Z,55.48
2023-09-14T14:59:09.230Z,54.45
2023-09-14T15:01:35.976Z,54.64
2023-09-14T15:04:03.368Z,56.01
2023-09-14T15:06:30.784Z,56.16
2023-09-14T15:08:57.700Z,56.13
2023-09-14T15:11:24.446Z,55.92
2023-09-14T15:13:53.247Z,56.00
2023-09-14T15:16:19.917Z,56.39
2023-09-14T15:18:46.828Z,55.90
2023-09-14T15:21:14.591Z,56.60
2023-09-14T15:23:41.483Z,56.86
2023-09-14T15:26:09.950Z,57.00
2023-09-14T15:28:38.551Z,57.15
2023-09-14T15:31:14.854Z,57.38
2023-09-14T15:33:41.870Z,58.50
2023-09-14T15:36:08.933Z,58.07
2023-09-14T15:38:35.613Z,59.19
2023-09-14T15:41:02.425Z,59.14
2023-09-14T15:43:29.147Z,58.53
2023-09-14T15:45:57.122Z,58.73
2023-09-14T15:48:24.109Z,58.63
2023-09-14T15:50:52.453Z,58.82
2023-09-14T15:53:19.972Z,58.89
2023-09-14T15:55:47.651Z,59.83
2023-09-14T15:58:15.656Z,60.18
2023-09-14T16:00:42.348Z,60.96
2023-09-14T16:03:11.312Z,60.02
2023-09-14T16:05:39.171Z,59.97
2023-09-14T16:08:12.840Z,60.69
2023-09-14T16:10:41.760Z,61.48
2023-09-14T16:13:10.927Z,61.72
2023-09-14T16:15:38.933Z,62.05
2023-09-14T16:18:06.148Z,62.25
2023-09-14T16:20:33.107Z,62.17
2023-09-14T16:23:00.359Z,62.39
2023-09-14T16:25:27.733Z,62.45
2023-09-14T16:27:55.296Z,62.55
2023-09-14T16:30:22.227Z,61.83
2023-09-14T16:32:50.705Z,61.65
2023-09-14T16:35:18.929Z,61.89
2023-09-14T16:37:45.629Z,62.15
2023-09-14T16:40:12.577Z,61.88
2023-09-14T16:42:39.638Z,62.39
2023-09-14T16:45:06.836Z,63.45
2023-09-14T16:47:34.019Z,63.68
2023-09-14T16:50:02.125Z,63.97
2023-09-14T16:52:29.833Z,64.11
2023-09-14T16:54:56.901Z,63.93
2023-09-14T16:57:25.751Z,63.41
2023-09-14T16:59:53.244Z,63.74
2023-09-14T17:02:23.105Z,63.85
2023-09-14T17:04:50.890Z,63.66
2023-09-14T17:07:22.970Z,63.47
2023-09-14T17:09:49.734Z,63.37
2023-09-14T17:12:16.448Z,63.84
2023-09-14T17:14:43.995Z,64.56
2023-09-14T17:17:10.997Z,64.74
2023-09-14T17:19:37.613Z,66.06
2023-09-14T17:22:06.225Z,66.15
2023-09-14T17:24:33.358Z,66.21
2023-09-14T17:27:00.183Z,66.13
2023-09-14T17:29:27.071Z,66.38
2023-09-14T17:31:53.897Z,66.76
2023-09-14T17:34:20.984Z,66.81
2023-09-14T17:36:50.097Z,66.79
2023-09-14T17:39:20.757Z,66.79
2023-09-14T17:41:48.013Z,67.55
2023-09-14T17:44:15.302Z,68.45
2023-09-14T17:46:42.144Z,68.82
2023-09-14T17:49:09.169Z,68.96
2023-09-14T17:51:36.559Z,68.97
2023-09-14T17:54:04.434Z,68.50
2023-09-14T17:56:35.113Z,68.64
2023-09-14T17:59:05.550Z,68.36
2023-09-14T18:01:32.622Z,68.44
2023-09-14T18:04:01.749Z,68.82
2023-09-14T18:06:29.431Z,68.80
2023-09-14T18:08:56.769Z,68.62
2023-09-14T18:11:24.997Z,68.82
2023-09-14T18:13:52.015Z,68.72
2023-09-14T18:16:18.659Z,69.22
2023-09-14T18:18:45.775Z,69.41
2023-09-14T18:21:13.891Z,68.82
2023-09-14T18:23:42.440Z,68.69
2023-09-14T18:26:09.106Z,68.59
2023-09-14T18:28:35.839Z,69.14
2023-09-14T18:31:06.274Z,69.29
2023-09-14T18:33:34.679Z,69.27
2023-09-14T18:36:02.621Z,69.17
2023-09-14T18:38:29.470Z,68.95
2023-09-14T18:41:03.048Z,68.70
2023-09-14T18:43:30.104Z,69.17
2023-09-14T18:45:56.904Z,69.13
2023-09-14T18:48:25.405Z,68.64
2023-09-14T18:50:59.326Z,68.80
2023-09-14T18:53:26.084Z,68.93
2023-09-14T18:55:52.757Z,69.07
2023-09-14T18:58:34.793Z,68.97
2023-09-14T19:01:06.211Z,68.95
2023-09-14T19:03:33.174Z,69.09
2023-09-14T19:06:00.117Z,69.29
2023-09-14T19:08:26.957Z,69.76
2023-09-14T19:10:55.916Z,69.14
2023-09-14T19:13:23.103Z,68.55
2023-09-14T19:15:50.438Z,69.17
2023-09-14T19:18:17.166Z,69.34
2023-09-14T19:20:47.083Z,69.11
2023-09-14T19:23:14.317Z,69.42
2023-09-14T19:25:41.534Z,69.10
2023-09-14T19:28:09.561Z,69.28
2023-09-14T19:30:37.766Z,69.07
2023-09-14T19:33:04.974Z,69.33
2023-09-14T19:35:31.696Z,69.32
2023-09-14T19:37:58.473Z,69.68
2023-09-14T19:40:25.742Z,69.84
2023-09-14T19:42:52.644Z,69.41
2023-09-14T19:45:19.599Z,69.53
2023-09-14T19:47:46.385Z,69.50
2023-09-14T19:50:13.315Z,69.67
2023-09-14T19:52:40.079Z,70.02
2023-09-14T19:55:07.153Z,70.43
2023-09-14T19:57:34.069Z,70.43
2023-09-14T20:00:00.808Z,71.38
2023-09-14T20:02:27.665Z,70.86
2023-09-14T20:04:54.415Z,71.04
2023-09-14T20:07:21.169Z,71.07
2023-09-14T20:09:47.850Z,70.82
2023-09-14T20:12:18.265Z,70.97
2023-09-14T20:14:45.708Z,70.62
2023-09-14T20:17:16.846Z,70.00
2023-09-14T20:19:46.961Z,70.16
2023-09-14T20:22:15.629Z,70.49
2023-09-14T20:24:45.198Z,70.81
2023-09-14T20:27:13.191Z,70.76
2023-09-14T20:29:39.980Z,70.59
2023-09-14T20:32:06.692Z,70.37
2023-09-14T20:34:33.857Z,70.70
2023-09-14T20:37:01.994Z,70.27
2023-09-14T20:39:29.903Z,70.21
2023-09-14T20:42:01.572Z,70.69
2023-09-14T20:44:28.823Z,71.28
2023-09-14T20:46:55.576Z,70.58
2023-09-14T20:49:22.788Z,70.97
2023-09-14T20:51:49.778Z,71.21
2023-09-14T20:54:20.975Z,71.23
2023-09-14T20:56:47.990Z,71.22
2023-09-14T20:59:17.046Z,71.31
2023-09-14T21:01:45.769Z,71.41
2023-09-14T21:04:12.780Z,71.76
2023-09-14T21:06:39.949Z,72.14
2023-09-14T21:09:10.386Z,71.98
2023-09-14T21:11:37.308Z,71.83
2023-09-14T21:14:10.386Z,71.62
2023-09-14T21:16:37.754Z,70.84
2023-09-14T21:19:06.976Z,71.16
2023-09-14T21:21:34.005Z,71.22
2023-09-14T21:24:00.776Z,71.20
2023-09-14T21:26:27.595Z,71.77
2023-09-14T21:28:54.237Z,71.24
2023-09-14T21:31:20.878Z,71.07
2023-09-14T21:33:47.588Z,71.08
2023-09-14T21:36:14.405Z,70.65
2023-09-14T21:38:41.063Z,70.58
2023-09-14T21:41:08.090Z,70.94
2023-09-14T21:43:37.930Z,71.40
2023-09-14T21:46:09.042Z,71.27
2023-09-14T21:48:36.025Z,71.64
2023-09-14T21:51:02.887Z,70.98
2023-09-14T21:53:30.209Z,71.47
2023-09-14T21:55:57.373Z,71.78
2023-09-14T21:58:25.353Z,71.43
2023-09-14T22:00:53.018Z,71.96
2023-09-14T22:03:20.178Z,71.38
2023-09-14T22:05:51.403Z,71.90
2023-09-14T22:08:21.674Z,71.35
2023-09-14T22:10:48.828Z,71.89
2023-09-14T22:13:17.849Z,72.43
2023-09-14T22:15:45.260Z,72.72
2023-09-14T22:18:15.017Z,72.25
2023-09-14T22:20:44.108Z,71.94
2023-09-14T22:23:10.877Z,71.93
2023-09-14T22:25:42.268Z,71.93
2023-09-14T22:28:09.426Z,72.76
2023-09-14T22:30:36.983Z,72.85
2023-09-14T22:33:05.152Z,74.00
2023-09-14T22:35:32.899Z,73.60
2023-09-14T22:37:59.603Z,73.28
2023-09-14T22:40:26.300Z,74.12
2023-09-14T22:42:53.129Z,73.99
2023-09-14T22:45:19.795Z,73.48
2023-09-14T22:47:46.577Z,73.08
2023-09-14T22:50:13.292Z,72.92
2023-09-14T22:52:39.961Z,72.65
2023-09-14T22:55:12.699Z,72.81
2023-09-14T22:57:40.426Z,72.97
2023-09-14T23:00:11.143Z,72.56
2023-09-14T23:02:38.774Z,72.75
2023-09-14T23:05:11.707Z,72.58
2023-09-14T23:07:39.869Z,72.88
2023-09-14T23:10:10.203Z,72.96
2023-09-14T23:12:41.518Z,73.16
2023-09-14T23:15:10.356Z,72.55
2023-09-14T23:17:41.609Z,73.11
2023-09-14T23:20:19.668Z,73.25
2023-09-14T23:22:47.068Z,73.84
2023-09-14T23:25:15.362Z,73.58
2023-09-14T23:27:45.179Z,73.64
2023-09-14T23:30:21.817Z,73.26
2023-09-14T23:32:51.389Z,73.73
2023-09-14T23:35:19.636Z,74.08
2023-09-14T23:37:46.718Z,73.61
2023-09-14T23:40:26.090Z,73.70
2023-09-14T23:42:54.280Z,73.67
2023-09-14T23:45:25.422Z,73.93
2023-09-14T23:47:52.820Z,73.85
2023-09-14T23:50:19.617Z,73.39
2023-09-14T23:52:46.239Z,73.32
2023-09-14T23:55:14.663Z,73.61
2023-09-14T23:57:41.922Z,73.55
